Disclaimer   
PNR Super Search
 ♦ 
×
HashTag:
PNR Number:
Train Type:
Train:
From Station:
To Station:
Train Class:
2SSLCCEx3AFC2A1A3E
WL Quota:
DOJ From:
DOJ To:
Blogger:
Traveller:
Predictor:
Prediction:
WLRACConf
Stamper:
Final:
WLRACConfVoidQ-ConfUnStamped
Status:
Reaction:

Search
  Go  
 
Mon Jan 26, 2015 21:57:09 ISTHomeTrainsΣChainsAtlasPNRForumGalleryNewsFAQTripsMembersLoginFeedback
Mon Jan 26, 2015 21:57:09 IST
Post PNRPNR StatusModify Search

Ticket PNR Status Inquiry - PNR: 620-xxxxxxx (E-Ticket)

OLD STATUS

Status Last Updated on: Oct 31 2011 (7:14AM) IST

Date of Journey: Mon Oct 31, 2011   Class: Sleeper - SL   (Total Seats available for this Class/Quota: Avbl >14)
Passenger 1: S4,10 (Booking Status: W/L 46,RLGN)
Chart PREPARED

East Coast Express/18645

Travel Time: 6h 55m    8 halts    Distance: 359 km    Avg Speed: 51 km/hr
Type: Mail/Express
Zone: SER/South Eastern
Departs @ 11:35 (Avg 6m late)
Platform# 1
SMTWTFS
BZA/Vijayawada Junction 
Arrives @ 18:30 (Avg 16m late)
Platform# 5
SMTWTFS
HYB/Hyderabad Deccan Nampally 

8 halts. 54 intermediate Stations between Vijayawada Junction and Hyderabad Deccan Nampally

Show ALL intermediate Stations  Show Old Time-Table

#TrkCodeStation NameX/OArrivesAvgDepartsAvgHaltPFDay#KmSpeedElevZoneAddress
1/==/HWHKolkata Howrah Junction  -11:45+2221-1230.26610mERHowrah 711101, West Bengal
2/==/MCAMechedaX  12:38+1512:40+222m--1-1172.03710mSERdist - purba Medinipur, West Bengal
3/==/PKUPanskura JunctionX  13:00+1413:02+162m--1-1159.6599mSERPanskura, West Bengal
4/==/KGPKharagpur JunctionX  13:47+713:52+105m11-1115.27342mSERDist: West Medinipur, West Bengal
5/==/BLDABelda  14:21+1414:23+142m--1-1079.77924mSERDistrict Paschim Medinipur, West Bengal
6/==/JERJaleswar  14:48+2114:50+202m--1-1046.66513mSERJaleswar, Odisha
7/==/BTSBastaX  15:08+1915:10+212m--1-1027.24716mSERBasta, Odisha
8/==/ROPRupsa JunctionXO  15:23+1915:25+182m--1-1017.05313mSERRupsa, Odisha
9/==/BLSBalasore  15:45+1215:50+105m--1-999.28719mSERBalasore, Odisha
10/==/SOROSoroX  16:13+1516:15+152m--1-965.76814mSERSoro, Odisha
11/==/MKOMarkonaX  16:28+1616:30+162m--1-950.92018mSERMarkuna, Odisha
12/==/BHCBhadrak  17:13+517:15+62m--1-936.78323mECoRBhadrak, Odisha
13/==/BTVBaitarani Road  17:38+1217:39+131m--1-904.96927mECoRBaitarani, Odisha
14/==/KRIHKorai Halt  17:45+1417:46+141m--1-898.04930mECoRJajapur, Odisha
15/==/JJKRJajpur Keonjhar Road  17:52+1417:54+152m--1-893.08836mECoRJajpur, Odisha
16/==/DNMDhanmandalX  18:19+1718:20+171m--1-856.55838mECoRDhanmanda, Odisha
17%==/CTCCuttack JunctionX  18:57+1619:02+205m31-821.04628mECoRCuttack, Odisha
18%==/BRAGBarang  19:18+2119:19+211m--1-808.93027mECoRDist - Cuttack, Odisha
19/==/BBSBhubaneswarX  19:50+1519:55+155m41-793.23840mECoRBhubaneshwar, Odisha
20/==/KURKhurda Road JunctionX  20:25+1420:40+1215m81-774.27625mECoRKhordha, Odisha
21/==/NKPNirakarpur  21:01+1621:03+152m--1-747.87821mECoRNirakarpur, Odisha
22/==/KAPGKalupara Ghat  21:16+1721:18+172m31-730.88310mECoRChandeswar, Odisha
23/==/BALUBalugaon  21:38+1821:40+182m21-703.26211mECoR752030, Odisha
24/==/CLKAChilka  21:47+1821:49+182m--1-695.96725mECoRBarkul, Odisha
25/==/KITKhallikot  21:58+1822:00+182m--1-685.97513mECoRKhallikot, Odisha
26/==/CAPChatrapur  22:30+2022:32+202m--1-648.57236mECoRChatrapur, Odisha
27/==/BAMBrahmapurO  22:50+1823:00+1510m21-627.17027mECoRBerhampur, Odisha
28/==/IPMIchchapuramX  23:21+1723:23+182m--1-602.68321mECoRIchchapuram, Andhra Pradesh
29/==/SPTSompetaO  23:36+723:38+72m--1-584.63548mECoRKanchili, Andhra Pradesh
30/==/PSAPalasa  00:33+400:35+52m--2-552.87731mECoRKasibugga, Andhra Pradesh
31/==/NWPNaupada Junction  00:55+1100:57+112m--2-527.08613mECoRNuapada . ph.no. 08945-249728, Andhra Pradesh
32/==/CHESrikakulam Road  01:30+1201:32+132m--2-479.88334mECoRsrikakulam road ph .no. 08942-287222, Andhra Pradesh
33/==/CPPChipurupalleX  02:00+1502:02+152m--2-441.15699mECoRCheepurupalli, Andhra Pradesh
34/==/VZMVizianagaram Junction  02:35+1302:40+145m--2-410.27563mECoRVizianagaram, Andhra Pradesh
35/==/KTVKottavalasa JunctionX  03:08+2603:10+262m--2-375.37758mECoRVizianagaram District, Andhra Pradesh
36/==/SCMSimhachalam  03:24+1:2803:26+1:282m--2-357.21727mECoRVisakhapatnam, Andhra Pradesh
37/==/VSKPVisakhapatnam JunctionX03:55+1504:15+1420m32-349.13311mECoRVishakhapatnam 530001, Andhra Pradesh
38/==/DVDDuvvadaX  04:45+1404:47+152m12-332.84446mECoRVishakhapatnam District, Andhra Pradesh
39/==/AKPAnakapalleX  05:09+1405:10+171m22-316.85930mSCRAnakapalle ph.no . 08924-221698, Andhra Pradesh
40/==/YLMElamanchiliX  05:34+1905:35+231m12-293.07123mSCRVisakhapatnam District, Andhra Pradesh
41/==/TUNITuniX  06:09+2606:10+271m12-253.06224mSCRTuni ph.no. 08854-252172, Andhra Pradesh
42/==/ANVAnnavaramXO  06:26+2806:27+291m12-236.34627mSCREast Godavari District, Andhra Pradesh
43/==/PAPPithapuramXO  06:59+1907:00+251m12-211.58022mSCREast Godavari District, Andhra Pradesh
44/==/SLOSamalkot JunctionXO  07:09+2907:10+311m32-199.56318mSCRSamalkot, Andhra Pradesh
45/==/DWPDwarapudiX07:39+3207:40+331m--2-169.24020mSCREast Godavari District, Andhra Pradesh
46/==/RJYRajahmundry  08:10+2908:12+302m12-149.35523mSCRRajahmundry ph.no. 0883-2420541, Andhra Pradesh
47/==/NDDNidadavolu JunctionXO  08:36+4208:37+431m22-127.17520mSCRNidadavolu jtn ph.no. 08813-210325, Andhra Pradesh
48/==/TDDTadepalligudem  08:53+4508:54+481m32-107.19218mSCRTadepalligudem, Andhra Pradesh
49/==/EEEluru  09:25+5309:26+541m32-59.43319mSCREluru Ph.no. 08812 226401., Andhra Pradesh
50/==/BZAVijayawada Junction»X11:15+711:35+620m120.09324mSCRVijayawada 520001, Andhra Pradesh
51/==/KMTKhammamX  12:40+4912:42+492m22100.466118mSCRKhammam 507001, Telangana
52/==/MABDMahbubabad  13:25+5713:26+581m22147.858200mSCRWarangal Dist., Telangana
53/==/WLWarangal  14:28+4414:30+462m22207.947271mSCRWarangal., Telangana
54/==/KZJKazipet JunctionX  14:43+4814:45+492m32218.164292mSCRWarangal Dist., Telangana
55/==/ZNJangaon  15:30+1:0915:32+1:082m12266.039380mSCRWarangal Dist., Telangana
56/==/ALERAler  15:55+1:0215:56+1:021m22281.145366mSCRNalgonda Dist., Telangana
57/==/BGBhongirX  16:26+5616:27+581m12303.430455mSCRNalgonda Dist., Telangana
58/==/SCSecunderabad JunctionX  18:00+2218:05+215m52349.722539mSCRSecunderabad 500003, Telangana
59/==/HYBHyderabad Deccan Nampally•  18:30+16-52359.0-510mSCRHyderabad, Telangana
Scroll to Top
Scroll to Bottom


Go to Mobile site